Terminal Aerodrome Forecast
Issued by NWS Tulsa, OK

Home | Current Version | Previous Version | Text Only | Print | Product List | Glossary On
Versions: 1 2 3 4 5 6 7 8 9 10 11 12 13
000
FTUS44 KTSA 250500
TAFTUL
TAF
KTUL 250520Z 2506/2606 16007KT P6SM FEW200
     FM251400 19015KT P6SM FEW050 SCT250
     FM260100 17011KT P6SM FEW250=

USA.gov is the U.S. government's official web portal to all federal, state and local government web resources and services.